Time;durP1;ratioP1;P1;durP2;ratioP2;P2;SDS_P1;SDS_P2;PMS_P1;PMS_P2;Temp;Humidity;BMP_temperature;BMP_pressure;BME280_temperature;BME280_humidity;BME280_pressure;Samples;Min_cycle;Max_cycle;Signal;HPM_P1;HPM_P2
2023/03/15 04:02:09;;;;;;;11.33;10.00;;;1.40;99.90;;;;;;5108474;23;20455;-75
2023/03/15 04:04:35;;;;;;;10.83;9.83;;;1.40;99.90;;;;;;4934081;29;20458;-74
2023/03/15 04:07:01;;;;;;;11.73;10.57;;;1.40;99.90;;;;;;4935019;29;20561;-76
2023/03/15 04:09:26;;;;;;;11.60;10.77;;;1.30;99.90;;;;;;4935032;29;20190;-76
2023/03/15 04:11:52;;;;;;;10.93;9.97;;;1.30;99.90;;;;;;4921559;29;20203;-76
2023/03/15 04:14:18;;;;;;;12.57;11.37;;;1.30;99.90;;;;;;4916077;29;20584;-76
2023/03/15 04:16:43;;;;;;;12.43;11.23;;;1.40;99.90;;;;;;4950269;23;20222;-77
2023/03/15 04:19:11;;;;;;;14.83;10.93;;;1.30;99.90;;;;;;4935201;29;20233;-79
2023/03/15 04:21:37;;;;;;;11.33;9.40;;;1.20;99.90;;;;;;4937002;29;20242;-77
2023/03/15 04:24:03;;;;;;;14.97;13.93;;;1.20;99.90;;;;;;4941804;29;20594;-78
2023/03/15 04:26:29;;;;;;;40.37;37.77;;;1.00;99.90;;;;;;4929044;29;20342;-77
2023/03/15 04:28:57;;;;;;;31.60;29.70;;;0.90;99.90;;;;;;4926384;29;20207;-77
2023/03/15 04:31:25;;;;;;;35.03;32.90;;;0.80;99.90;;;;;;4921425;29;20175;-78
2023/03/15 04:33:55;;;;;;;38.47;36.13;;;0.80;99.90;;;;;;4915874;29;20202;-78
2023/03/15 04:36:22;;;;;;;36.17;33.90;;;0.70;99.90;;;;;;4916136;29;20203;-79
2023/03/15 04:38:48;;;;;;;30.13;28.37;;;0.70;99.90;;;;;;4925609;29;20187;-78
2023/03/15 04:41:15;;;;;;;38.13;35.47;;;0.80;99.90;;;;;;4925749;29;20183;-77
2023/03/15 04:43:41;;;;;;;56.83;53.07;;;0.70;99.90;;;;;;4931129;29;20220;-78
2023/03/15 04:46:08;;;;;;;36.07;33.77;;;0.70;99.90;;;;;;4919832;29;20221;-79
2023/03/15 04:48:34;;;;;;;33.90;30.67;;;0.70;99.90;;;;;;4915426;29;20219;-78
2023/03/15 04:51:00;;;;;;;37.63;34.83;;;0.60;99.90;;;;;;4915625;29;20191;-78
2023/03/15 04:53:25;;;;;;;30.10;28.10;;;0.60;99.90;;;;;;4917190;29;20601;-78
2023/03/15 04:55:51;;;;;;;24.30;22.80;;;0.50;99.90;;;;;;4927106;29;20226;-77
2023/03/15 04:58:18;;;;;;;30.67;28.50;;;0.50;99.90;;;;;;4925091;29;20191;-78
2023/03/15 05:00:43;;;;;;;32.97;31.00;;;0.50;99.90;;;;;;4921701;29;20282;-78
2023/03/15 05:03:09;;;;;;;36.97;34.47;;;0.40;99.90;;;;;;4918370;29;20219;-77
2023/03/15 05:05:35;;;;;;;33.27;31.20;;;0.40;99.90;;;;;;4921152;29;20786;-79
2023/03/15 05:08:01;;;;;;;37.83;35.40;;;0.30;99.90;;;;;;4919309;29;20191;-78
2023/03/15 05:10:29;;;;;;;35.20;33.00;;;0.30;99.90;;;;;;4916016;29;20294;-79
2023/03/15 05:12:55;;;;;;;36.97;34.53;;;0.20;99.90;;;;;;4917938;29;20660;-78
2023/03/15 05:15:20;;;;;;;38.37;36.03;;;0.20;99.90;;;;;;4916959;29;20229;-79
2023/03/15 05:17:47;;;;;;;42.80;40.33;;;0.20;99.90;;;;;;4915752;29;20723;-78
2023/03/15 05:20:15;;;;;;;49.00;46.13;;;0.10;99.90;;;;;;4914712;29;20179;-78
2023/03/15 05:22:41;;;;;;;46.90;44.13;;;0.10;99.90;;;;;;4914292;29;20210;-67
2023/03/15 05:25:09;;;;;;;42.30;39.13;;;0.10;99.90;;;;;;4911128;29;20287;-67
2023/03/15 05:27:36;;;;;;;24.73;23.20;;;0.00;99.90;;;;;;4914185;29;20244;-67
2023/03/15 05:30:03;;;;;;;19.93;18.53;;;0.00;99.90;;;;;;4913963;29;20202;-68
2023/03/15 05:32:33;;;;;;;14.50;13.10;;;0.00;99.90;;;;;;4914009;29;20190;-67
2023/03/15 05:35:00;;;;;;;10.60;9.43;;;0.10;99.90;;;;;;4914060;29;20687;-67
2023/03/15 05:37:26;;;;;;;11.20;9.30;;;0.00;99.90;;;;;;4913564;29;20190;-67
2023/03/15 05:39:52;;;;;;;9.70;8.80;;;0.00;99.90;;;;;;4913782;29;20187;-67
2023/03/15 05:42:24;;;;;;;11.00;9.23;;;0.10;99.90;;;;;;4914733;29;20533;-67
2023/03/15 05:44:50;;;;;;;12.13;9.80;;;0.00;99.90;;;;;;4913209;29;20582;-67
2023/03/15 05:47:16;;;;;;;11.67;10.37;;;0.00;99.90;;;;;;4914073;29;20198;-67
2023/03/15 05:49:42;;;;;;;14.30;10.57;;;0.10;99.90;;;;;;4913605;29;20565;-68
2023/03/15 05:52:08;;;;;;;14.77;10.93;;;0.10;99.90;;;;;;4913046;29;20200;-67
2023/03/15 05:54:33;;;;;;;12.03;10.87;;;0.20;99.90;;;;;;4913700;29;20221;-68
2023/03/15 05:56:59;;;;;;;13.83;12.63;;;0.30;99.90;;;;;;4913815;29;20203;-67
2023/03/15 05:59:25;;;;;;;12.37;11.07;;;0.30;99.90;;;;;;4913599;29;20189;-68
2023/03/15 06:01:51;;;;;;;17.03;15.60;;;0.30;99.90;;;;;;4913804;29;20183;-68
2023/03/15 06:04:16;;;;;;;16.17;11.53;;;0.40;99.90;;;;;;4914388;29;20191;-67
2023/03/15 06:06:42;;;;;;;13.40;12.20;;;0.40;99.90;;;;;;4913785;29;20226;-67
2023/03/15 06:09:08;;;;;;;11.93;10.83;;;0.30;99.90;;;;;;4913174;29;20647;-68
2023/03/15 06:11:33;;;;;;;11.67;10.50;;;0.30;99.90;;;;;;4913657;29;20183;-67
2023/03/15 06:13:59;;;;;;;11.80;9.83;;;0.30;99.90;;;;;;4914047;29;20183;-68
2023/03/15 06:16:25;;;;;;;11.70;10.60;;;0.40;99.90;;;;;;4913512;29;20714;-67
2023/03/15 06:18:51;;;;;;;12.53;11.23;;;0.50;99.90;;;;;;4913887;29;20187;-67
2023/03/15 06:21:17;;;;;;;17.87;12.93;;;0.50;99.90;;;;;;4913665;29;20536;-68
2023/03/15 06:23:42;;;;;;;16.63;13.17;;;0.50;99.90;;;;;;4916682;29;20369;-68
2023/03/15 06:26:08;;;;;;;17.27;13.33;;;0.60;99.90;;;;;;4916014;29;20195;-68
2023/03/15 06:28:34;;;;;;;13.83;10.87;;;0.60;99.90;;;;;;4916621;29;20191;-67
2023/03/15 06:31:10;;;;;;;14.63;12.00;;;0.60;99.90;;;;;;4917156;29;20187;-74
2023/03/15 06:33:37;;;;;;;14.20;12.40;;;0.70;99.90;;;;;;4917579;29;20219;-73
2023/03/15 06:36:03;;;;;;;16.37;14.13;;;0.70;99.90;;;;;;4917090;29;20771;-73
2023/03/15 06:38:30;;;;;;;14.70;13.27;;;0.80;99.90;;;;;;4916377;29;20198;-74
2023/03/15 06:40:57;;;;;;;13.07;11.50;;;0.90;99.90;;;;;;4914444;29;20275;-73
2023/03/15 06:43:24;;;;;;;14.70;13.27;;;0.90;99.90;;;;;;4915976;29;20424;-73
2023/03/15 06:45:49;;;;;;;15.60;10.57;;;1.00;99.90;;;;;;4914493;29;20582;-73
2023/03/15 06:48:16;;;;;;;18.17;11.63;;;1.10;99.90;;;;;;4915556;29;20187;-73
2023/03/15 06:50:42;;;;;;;12.97;11.67;;;1.20;99.90;;;;;;4914757;29;20187;-74
2023/03/15 06:53:08;;;;;;;17.07;12.73;;;1.30;99.90;;;;;;4915473;29;20209;-74
2023/03/15 06:55:33;;;;;;;16.70;12.13;;;1.40;99.90;;;;;;4914593;29;20218;-74
2023/03/15 06:57:59;;;;;;;18.00;14.67;;;1.50;99.90;;;;;;4916672;29;20553;-74
2023/03/15 07:00:25;;;;;;;27.83;20.30;;;1.80;99.90;;;;;;4917114;29;20636;-73
2023/03/15 07:02:51;;;;;;;20.03;17.43;;;2.30;99.90;;;;;;4917634;29;20222;-74
2023/03/15 07:05:16;;;;;;;20.17;17.43;;;2.80;99.90;;;;;;4920836;29;20691;-74
2023/03/15 07:07:42;;;;;;;28.17;22.60;;;3.10;99.90;;;;;;4918939;29;20238;-74
2023/03/15 07:10:09;;;;;;;27.07;21.80;;;3.50;99.90;;;;;;4917309;29;20190;-73
2023/03/15 07:12:35;;;;;;;28.40;24.03;;;3.80;99.90;;;;;;4917514;29;20624;-73
2023/03/15 07:15:00;;;;;;;25.67;23.40;;;4.10;99.90;;;;;;4915559;29;20262;-73
2023/03/15 07:17:26;;;;;;;24.40;22.10;;;4.40;99.90;;;;;;4916133;29;20191;-73
2023/03/15 07:19:52;;;;;;;19.30;17.53;;;5.20;99.90;;;;;;4916628;29;20187;-74
2023/03/15 07:22:18;;;;;;;16.80;14.50;;;6.00;99.90;;;;;;4916958;29;20190;-73
2023/03/15 07:24:43;;;;;;;19.20;17.80;;;6.50;99.90;;;;;;4915638;29;20296;-73
2023/03/15 07:27:12;;;;;;;10.97;9.77;;;6.80;99.90;;;;;;4915638;29;20214;-73
2023/03/15 07:29:38;;;;;;;8.93;8.13;;;7.10;99.90;;;;;;4916624;29;20205;-74
2023/03/15 07:32:05;;;;;;;10.30;8.23;;;7.20;99.90;;;;;;4917621;29;20187;-74
2023/03/15 07:34:30;;;;;;;8.10;7.40;;;7.30;99.90;;;;;;4916230;29;20227;-74
2023/03/15 07:36:56;;;;;;;10.67;6.63;;;7.40;99.90;;;;;;4917814;29;20203;-74
2023/03/15 07:39:22;;;;;;;9.47;8.50;;;7.30;99.90;;;;;;4917421;29;20652;-73
2023/03/15 07:41:48;;;;;;;10.70;9.80;;;7.30;99.90;;;;;;4915928;29;20234;-73
2023/03/15 07:44:14;;;;;;;14.77;13.63;;;7.40;99.90;;;;;;4915592;29;20738;-73
2023/03/15 07:46:40;;;;;;;15.57;14.50;;;7.30;99.90;;;;;;4915253;29;20310;-74
2023/03/15 07:49:05;;;;;;;16.00;15.00;;;7.50;99.90;;;;;;4916252;29;20188;-73
2023/03/15 07:51:31;;;;;;;9.50;8.83;;;7.60;99.90;;;;;;4914979;29;20219;-74
2023/03/15 07:53:57;;;;;;;11.47;6.20;;;7.80;99.90;;;;;;4915291;29;20191;-74
2023/03/15 07:56:23;;;;;;;10.23;6.57;;;8.00;99.90;;;;;;4915990;29;20204;-74
2023/03/15 07:58:48;;;;;;;6.83;6.13;;;8.10;99.90;;;;;;4915155;29;20663;-74
2023/03/15 08:01:14;;;;;;;7.93;5.93;;;8.10;99.90;;;;;;4915846;29;20187;-74
2023/03/15 08:03:40;;;;;;;8.93;7.93;;;7.80;99.90;;;;;;4916223;29;20188;-74
2023/03/15 08:06:06;;;;;;;8.63;8.03;;;7.70;99.90;;;;;;4915675;29;20254;-74
2023/03/15 08:08:32;;;;;;;8.77;5.93;;;7.90;99.90;;;;;;4916750;29;20237;-73
2023/03/15 08:10:59;;;;;;;6.13;5.63;;;8.10;99.90;;;;;;4916519;29;20194;-73
2023/03/15 08:13:25;;;;;;;9.03;6.90;;;8.40;99.90;;;;;;4916125;29;20187;-74
2023/03/15 08:15:51;;;;;;;8.17;6.70;;;8.60;99.90;;;;;;4916093;29;20733;-73
2023/03/15 08:18:16;;;;;;;7.50;6.77;;;8.60;99.90;;;;;;4915519;29;20221;-74
2023/03/15 08:20:42;;;;;;;7.67;7.07;;;8.80;99.90;;;;;;4915655;29;20198;-74
2023/03/15 08:23:08;;;;;;;8.43;7.57;;;9.00;99.90;;;;;;4914443;29;20179;-74
2023/03/15 08:25:39;;;;;;;10.83;7.50;;;9.10;99.90;;;;;;4914519;29;20233;-73
2023/03/15 08:28:05;;;;;;;7.63;6.97;;;9.20;99.90;;;;;;4915879;29;20214;-73
2023/03/15 08:30:31;;;;;;;9.97;8.87;;;9.10;99.90;;;;;;4915257;29;20186;-73
2023/03/15 08:32:56;;;;;;;8.13;7.60;;;9.20;99.90;;;;;;4915508;29;20514;-73
2023/03/15 08:35:22;;;;;;;8.03;7.20;;;9.40;99.90;;;;;;4914299;29;20860;-74
2023/03/15 08:37:51;;;;;;;8.07;7.37;;;9.40;99.90;;;;;;4915592;29;20239;-74
2023/03/15 08:40:28;;;;;;;10.33;9.43;;;9.10;99.90;;;;;;4915153;29;20652;-74
2023/03/15 08:42:55;;;;;;;9.80;8.20;;;9.00;99.90;;;;;;4914365;29;20234;-74
2023/03/15 08:45:23;;;;;;;9.40;8.37;;;9.30;99.90;;;;;;4914676;29;20199;-73
2023/03/15 08:47:54;;;;;;;8.87;8.00;;;9.00;99.90;;;;;;4915202;29;20187;-74
2023/03/15 08:50:20;;;;;;;7.40;6.70;;;8.90;99.90;;;;;;4913817;29;20286;-74
2023/03/15 08:52:45;;;;;;;8.40;7.03;;;8.70;99.90;;;;;;4913855;29;20273;-74
2023/03/15 08:55:13;;;;;;;11.57;10.67;;;8.20;99.90;;;;;;4915035;29;20230;-74
2023/03/15 08:57:39;;;;;;;5.67;5.17;;;8.30;99.90;;;;;;4915268;29;20608;-74
2023/03/15 09:00:09;;;;;;;5.93;5.33;;;8.50;99.90;;;;;;4915641;29;20187;-74
2023/03/15 09:02:38;;;;;;;6.93;6.43;;;8.60;99.90;;;;;;4915099;29;20517;-74
2023/03/15 09:05:05;;;;;;;8.87;8.07;;;9.00;99.90;;;;;;4914432;29;20549;-74
2023/03/15 09:07:32;;;;;;;6.03;5.53;;;9.20;99.90;;;;;;4915006;29;20239;-74
2023/03/15 09:09:58;;;;;;;8.47;6.97;;;9.10;99.90;;;;;;4913975;29;20214;-74
2023/03/15 09:12:23;;;;;;;7.83;5.87;;;9.00;99.90;;;;;;4915131;29;20183;-74
2023/03/15 09:14:49;;;;;;;6.27;5.70;;;9.10;99.90;;;;;;4913678;29;20619;-74
2023/03/15 09:17:15;;;;;;;7.27;6.13;;;9.00;99.90;;;;;;4915008;29;20613;-74
2023/03/15 09:19:40;;;;;;;8.13;5.63;;;9.00;99.90;;;;;;4914735;29;20183;-74
2023/03/15 09:22:06;;;;;;;6.93;5.97;;;9.30;99.90;;;;;;4915093;29;20194;-74
2023/03/15 09:24:32;;;;;;;7.03;6.50;;;9.10;99.90;;;;;;4914911;29;20220;-74
2023/03/15 09:26:58;;;;;;;7.23;5.87;;;8.50;99.90;;;;;;4914708;29;20247;-74
2023/03/15 09:29:24;;;;;;;7.07;6.37;;;8.70;99.90;;;;;;4914515;29;20195;-74
2023/03/15 09:31:49;;;;;;;5.47;5.10;;;9.40;99.90;;;;;;4914895;29;20191;-74
2023/03/15 09:34:15;;;;;;;4.73;4.33;;;9.90;99.90;;;;;;4913616;29;20195;-74
2023/03/15 09:36:41;;;;;;;5.57;4.90;;;9.90;99.90;;;;;;4914881;29;20250;-74
2023/03/15 09:39:07;;;;;;;4.17;3.80;;;9.80;99.90;;;;;;4914244;29;20282;-74
2023/03/15 09:41:45;;;;;;;5.90;4.43;;;9.50;99.90;;;;;;4914553;29;20190;-73
2023/03/15 09:44:21;;;;;;;5.50;5.00;;;9.50;99.90;;;;;;4913508;29;20183;-74
2023/03/15 09:47:02;;;;;;;6.00;4.93;;;9.50;99.90;;;;;;4914973;29;20262;-74
2023/03/15 09:49:51;;;;;;;7.23;4.97;;;9.60;99.90;;;;;;4913086;29;20213;-74
2023/03/15 09:52:34;;;;;;;4.50;4.10;;;9.50;99.90;;;;;;4913741;29;20262;-74
2023/03/15 09:55:16;;;;;;;10.13;5.20;;;9.60;99.90;;;;;;4913852;29;20218;-74
2023/03/15 09:58:01;;;;;;;5.63;4.50;;;9.60;99.90;;;;;;4918124;29;20218;-74
2023/03/15 10:00:47;;;;;;;4.63;4.20;;;10.00;99.90;;;;;;4918541;29;20187;-74
2023/03/15 10:03:31;;;;;;;5.73;5.20;;;10.30;99.90;;;;;;4919060;29;20198;-74
2023/03/15 10:06:16;;;;;;;6.00;5.50;;;10.70;99.90;;;;;;4917654;29;20584;-75
2023/03/15 10:08:42;;;;;;;6.70;6.30;;;11.20;99.90;;;;;;4917332;29;20191;-75
2023/03/15 10:11:20;;;;;;;6.23;5.70;;;11.10;99.90;;;;;;4918663;29;20215;-75
2023/03/15 10:14:13;;;;;;;7.93;5.87;;;10.70;99.90;;;;;;4917809;29;20193;-75
2023/03/15 10:16:45;;;;;;;6.30;5.80;;;9.80;99.90;;;;;;4917357;29;20749;-75
2023/03/15 10:19:32;;;;;;;6.90;5.93;;;9.40;99.90;;;;;;4919705;29;20200;-75
2023/03/15 10:22:11;;;;;;;8.63;5.63;;;9.10;99.90;;;;;;4920538;29;20289;-75
2023/03/15 10:24:49;;;;;;;6.23;5.00;;;8.90;99.90;;;;;;4919435;29;20186;-75
2023/03/15 10:27:33;;;;;;;5.67;5.17;;;8.70;99.90;;;;;;4918565;29;20183;-73
2023/03/15 10:29:59;;;;;;;7.57;4.60;;;8.50;99.90;;;;;;4917832;29;20183;-74
2023/03/15 10:32:33;;;;;;;5.40;5.03;;;8.30;99.90;;;;;;4917158;29;20186;-74
2023/03/15 10:35:00;;;;;;;7.20;5.00;;;8.40;99.90;;;;;;4918089;29;20229;-73
2023/03/15 10:37:26;;;;;;;5.80;4.10;;;8.60;99.90;;;;;;4918184;29;20202;-74
2023/03/15 10:39:57;;;;;;;5.83;5.30;;;8.50;99.90;;;;;;4918282;29;20187;-74
2023/03/15 10:42:32;;;;;;;6.03;4.90;;;8.40;99.90;;;;;;4920064;29;20187;-73
2023/03/15 10:45:10;;;;;;;5.57;5.10;;;8.40;99.90;;;;;;4918490;29;20226;-74
2023/03/15 10:47:42;;;;;;;5.20;4.80;;;8.40;99.90;;;;;;4917881;29;20190;-74
2023/03/15 10:50:15;;;;;;;5.57;5.07;;;8.30;99.90;;;;;;4918944;29;20258;-74
2023/03/15 10:52:43;;;;;;;4.90;4.60;;;8.60;99.90;;;;;;4918166;29;20187;-74
2023/03/15 10:55:15;;;;;;;5.67;4.97;;;8.70;99.90;;;;;;4916541;29;20214;-74
2023/03/15 10:57:52;;;;;;;6.13;4.97;;;8.90;99.90;;;;;;4916600;29;20241;-74
2023/03/15 11:00:28;;;;;;;5.73;5.30;;;9.30;99.90;;;;;;4916326;29;20648;-74
2023/03/15 11:03:01;;;;;;;5.07;4.67;;;9.60;99.90;;;;;;4918105;29;20182;-74
2023/03/15 11:05:37;;;;;;;5.50;4.50;;;9.50;99.90;;;;;;4917499;29;20355;-73
2023/03/15 11:08:09;;;;;;;5.70;5.20;;;9.50;99.90;;;;;;4916944;29;20217;-74
2023/03/15 11:10:35;;;;;;;5.47;5.07;;;9.60;99.90;;;;;;4916117;29;20183;-73
2023/03/15 11:13:27;;;;;;;8.50;5.23;;;10.10;99.90;;;;;;4917389;29;20211;-73
2023/03/15 11:16:02;;;;;;;4.67;4.23;;;11.30;99.90;;;;;;4917168;29;20218;-74
2023/03/15 11:19:00;;;;;;;5.17;4.10;;;11.50;99.50;;;;;;4916306;29;20187;-73
2023/03/15 11:21:35;;;;;;;4.63;4.27;;;11.50;99.20;;;;;;4917012;29;20206;-74
2023/03/15 11:24:04;;;;;;;4.50;4.20;;;10.60;99.60;;;;;;4916339;29;20186;-73
2023/03/15 11:26:38;;;;;;;7.10;4.33;;;10.10;99.90;;;;;;4916004;29;20215;-73
2023/03/15 11:29:21;;;;;;;4.00;3.83;;;10.00;99.90;;;;;;4915851;29;20226;-74
2023/03/15 11:31:47;;;;;;;5.87;4.13;;;9.90;99.90;;;;;;4916023;29;20243;-73
2023/03/15 11:34:38;;;;;;;4.33;3.80;;;9.40;99.90;;;;;;4915870;29;20190;-73
2023/03/15 11:37:27;;;;;;;6.00;5.30;;;8.90;99.90;;;;;;4916060;29;20207;-73
2023/03/15 11:40:01;;;;;;;8.70;4.70;;;8.40;99.90;;;;;;4915537;29;20187;-73
2023/03/15 11:42:37;;;;;;;4.57;4.23;;;7.90;99.90;;;;;;4916037;29;20208;-73
2023/03/15 11:45:26;;;;;;;5.57;4.80;;;7.80;99.90;;;;;;4915565;29;20666;-74
2023/03/15 11:47:56;;;;;;;6.13;5.63;;;7.90;99.90;;;;;;4878120;29;20202;-74
2023/03/15 11:50:22;;;;;;;5.53;5.23;;;8.10;99.90;;;;;;4915428;29;20652;-73
2023/03/15 11:52:51;;;;;;;6.13;5.60;;;8.40;99.90;;;;;;4917061;29;20281;-73
2023/03/15 11:55:25;;;;;;;8.50;5.40;;;8.50;99.90;;;;;;4915554;29;20593;-74
2023/03/15 11:57:52;;;;;;;6.57;6.17;;;8.20;99.90;;;;;;4920296;29;20187;-73
2023/03/15 12:00:44;;;;;;;7.90;7.40;;;8.00;99.90;;;;;;4915235;29;20175;-74
2023/03/15 12:03:41;;;;;;;8.27;7.57;;;7.90;99.90;;;;;;4916729;29;20183;-74
2023/03/15 12:06:16;;;;;;;8.03;7.43;;;7.90;99.90;;;;;;4915483;29;20251;-74
2023/03/15 12:08:49;;;;;;;7.50;7.10;;;7.90;99.90;;;;;;4916580;29;20195;-74
2023/03/15 12:11:20;;;;;;;8.27;7.73;;;7.80;99.90;;;;;;4916792;29;20187;-74
2023/03/15 12:14:21;;;;;;;9.63;8.87;;;7.70;99.90;;;;;;4917245;29;20255;-74
2023/03/15 12:16:47;;;;;;;11.63;10.83;;;7.40;99.90;;;;;;4916514;29;20219;-74
2023/03/15 12:19:19;;;;;;;14.10;13.27;;;7.30;99.90;;;;;;4916059;29;20235;-74
2023/03/15 12:21:57;;;;;;;12.27;11.53;;;7.20;99.90;;;;;;4915240;29;20662;-74
2023/03/15 12:24:29;;;;;;;10.27;9.63;;;7.30;99.90;;;;;;4916171;29;20222;-74
2023/03/15 12:27:05;;;;;;;14.10;13.13;;;7.50;99.90;;;;;;4915495;29;20635;-74
2023/03/15 12:29:33;;;;;;;12.00;11.27;;;7.80;99.90;;;;;;4916376;29;20182;-74
2023/03/15 12:32:12;;;;;;;13.57;12.13;;;8.00;99.90;;;;;;4918508;29;20186;-74
2023/03/15 12:34:50;;;;;;;8.37;7.97;;;8.20;99.90;;;;;;4920977;29;20211;-74
2023/03/15 12:37:19;;;;;;;8.07;7.57;;;8.30;99.90;;;;;;4922027;29;20189;-74
2023/03/15 12:39:45;;;;;;;7.80;7.20;;;8.30;99.90;;;;;;4916457;29;20262;-74
2023/03/15 12:42:31;;;;;;;6.53;6.03;;;8.30;99.90;;;;;;4914873;29;20628;-74
2023/03/15 12:45:15;;;;;;;6.30;5.80;;;8.30;99.90;;;;;;4915770;29;20210;-74
2023/03/15 12:47:50;;;;;;;6.87;6.37;;;8.20;99.90;;;;;;4915945;29;20246;-73
2023/03/15 12:50:36;;;;;;;6.80;6.13;;;8.20;99.90;;;;;;4915470;29;20720;-73
2023/03/15 12:53:12;;;;;;;6.60;6.10;;;8.60;99.90;;;;;;4902657;29;20201;-74
2023/03/15 12:55:39;;;;;;;7.87;6.73;;;8.80;99.90;;;;;;4919084;29;20232;-73
2023/03/15 12:58:11;;;;;;;8.50;7.77;;;8.50;99.90;;;;;;4923032;29;20670;-74
2023/03/15 13:00:40;;;;;;;7.43;6.83;;;8.00;99.90;;;;;;4926021;29;20263;-74
2023/03/15 13:03:20;;;;;;;10.00;9.13;;;8.10;99.90;;;;;;4921277;29;20600;-75
2023/03/15 13:06:01;;;;;;;12.13;11.43;;;8.00;99.90;;;;;;4914699;29;20637;-75
2023/03/15 13:09:03;;;;;;;13.20;12.47;;;7.90;99.90;;;;;;4915797;29;20199;-75
2023/03/15 13:11:55;;;;;;;5.23;4.73;;;7.70;99.90;;;;;;4883803;29;20214;-75
2023/03/15 13:14:50;;;;;;;6.23;5.00;;;7.60;99.90;;;;;;4915626;29;20232;-75
2023/03/15 13:17:34;;;;;;;8.17;7.43;;;7.50;99.90;;;;;;4896382;29;20207;-75
2023/03/15 13:20:36;;;;;;;9.83;8.83;;;7.30;99.90;;;;;;4915583;29;20187;-75
2023/03/15 13:23:20;;;;;;;6.17;5.73;;;7.20;99.90;;;;;;4914324;29;20178;-75
2023/03/15 13:25:51;;;;;;;12.47;11.67;;;7.10;99.90;;;;;;4915240;29;20215;-75
2023/03/15 13:28:39;;;;;;;12.80;12.00;;;7.10;99.90;;;;;;4914093;29;20211;-75
2023/03/15 13:31:16;;;;;;;12.23;11.53;;;7.00;99.90;;;;;;4914896;29;20274;-74
2023/03/15 13:33:46;;;;;;;13.23;12.30;;;6.90;99.90;;;;;;4915214;29;20191;-74
2023/03/15 13:36:18;;;;;;;16.40;15.40;;;6.80;99.90;;;;;;4915078;29;20227;-74
2023/03/15 13:38:43;;;;;;;5.77;5.27;;;6.60;99.90;;;;;;4914942;29;20562;-74
2023/03/15 13:41:15;;;;;;;8.63;6.67;;;6.10;99.90;;;;;;4914002;29;20178;-74
2023/03/15 13:43:42;;;;;;;7.40;6.63;;;5.80;99.90;;;;;;4915258;29;20234;-74
2023/03/15 13:46:08;;;;;;;7.10;6.60;;;5.60;99.90;;;;;;4913989;29;20238;-74
2023/03/15 13:48:36;;;;;;;8.03;7.40;;;5.60;99.90;;;;;;4913939;29;20543;-74
2023/03/15 13:51:16;;;;;;;7.23;6.50;;;5.70;99.90;;;;;;4914098;29;20183;-74
2023/03/15 13:53:42;;;;;;;8.47;7.87;;;5.80;99.90;;;;;;4915007;29;20659;-74
2023/03/15 13:56:13;;;;;;;10.43;9.90;;;5.90;99.90;;;;;;4914867;29;20215;-75
2023/03/15 13:58:40;;;;;;;5.90;5.50;;;6.10;99.90;;;;;;4914726;29;20242;-74
2023/03/15 14:01:08;;;;;;;5.93;5.43;;;6.20;99.90;;;;;;4913815;29;20600;-74
2023/03/15 14:03:35;;;;;;;9.40;6.60;;;6.30;99.90;;;;;;4915094;29;20522;-74
2023/03/15 14:06:01;;;;;;;8.93;8.43;;;6.50;99.90;;;;;;4913839;29;20202;-74
2023/03/15 14:08:30;;;;;;;9.87;9.17;;;6.60;99.90;;;;;;4913398;29;20660;-75
2023/03/15 14:11:02;;;;;;;8.47;7.87;;;6.70;99.90;;;;;;4913556;29;20277;-75
2023/03/15 14:13:34;;;;;;;6.43;5.93;;;6.90;99.90;;;;;;4914700;29;20221;-75
2023/03/15 14:16:13;;;;;;;5.90;5.50;;;7.10;99.90;;;;;;4914599;29;20222;-75
2023/03/15 14:18:40;;;;;;;6.63;5.87;;;7.30;99.90;;;;;;4915135;29;20187;-75
2023/03/15 14:21:19;;;;;;;7.17;6.47;;;7.30;99.90;;;;;;4915494;29;20180;-73
2023/03/15 14:23:47;;;;;;;12.17;11.37;;;7.10;99.90;;;;;;4915381;29;20187;-75
2023/03/15 14:26:25;;;;;;;6.30;5.70;;;6.90;99.90;;;;;;4916896;29;20214;-74
2023/03/15 14:28:58;;;;;;;6.07;5.50;;;6.60;99.90;;;;;;4915086;29;20183;-73
2023/03/15 14:31:39;;;;;;;10.03;9.23;;;6.40;99.90;;;;;;4913542;29;20652;-74
2023/03/15 14:34:22;;;;;;;7.67;7.23;;;6.20;99.90;;;;;;4914584;29;20261;-72
2023/03/15 14:36:50;;;;;;;7.43;6.87;;;6.00;99.90;;;;;;4913332;29;20207;-73
2023/03/15 14:39:38;;;;;;;19.43;18.20;;;6.00;99.90;;;;;;4914199;29;20239;-74
2023/03/15 14:42:05;;;;;;;10.20;9.57;;;6.20;99.90;;;;;;4913246;29;20202;-73
2023/03/15 14:44:30;;;;;;;7.73;7.23;;;6.30;99.90;;;;;;4916948;29;20187;-73
2023/03/15 14:46:57;;;;;;;11.23;10.33;;;6.50;99.90;;;;;;4918056;29;20714;-74
2023/03/15 14:49:25;;;;;;;9.20;8.60;;;6.60;99.90;;;;;;4917810;29;20195;-74
2023/03/15 14:52:00;;;;;;;11.37;10.73;;;7.50;99.90;;;;;;4917992;29;20191;-73
2023/03/15 14:54:28;;;;;;;5.30;5.00;;;8.80;99.90;;;;;;4917485;29;20197;-74
2023/03/15 14:56:54;;;;;;;8.17;7.57;;;10.00;99.90;;;;;;4916634;29;20214;-74
2023/03/15 14:59:20;;;;;;;7.23;6.63;;;10.30;99.90;;;;;;4917405;29;20179;-73
2023/03/15 15:01:50;;;;;;;9.27;8.77;;;9.70;99.90;;;;;;4916686;29;20181;-74
2023/03/15 15:04:17;;;;;;;7.80;7.20;;;9.80;99.90;;;;;;4916678;29;20214;-73
2023/03/15 15:06:51;;;;;;;6.50;6.13;;;10.30;99.90;;;;;;4916618;29;20205;-74
2023/03/15 15:09:22;;;;;;;6.90;6.50;;;9.90;99.90;;;;;;4916202;29;20217;-74
2023/03/15 15:11:48;;;;;;;12.40;7.23;;;9.00;99.90;;;;;;4916576;29;20564;-74
2023/03/15 15:14:14;;;;;;;8.23;7.63;;;8.20;99.90;;;;;;4916374;29;20234;-74
2023/03/15 15:16:41;;;;;;;13.70;12.63;;;7.60;99.90;;;;;;4917369;29;20282;-73
2023/03/15 15:19:07;;;;;;;23.07;20.93;;;7.30;99.90;;;;;;4912799;29;20187;-73
2023/03/15 15:21:34;;;;;;;7.90;7.30;;;7.00;99.90;;;;;;4917064;29;20675;-72
2023/03/15 15:24:10;;;;;;;9.97;9.17;;;6.60;99.90;;;;;;4917299;29;20184;-72
2023/03/15 15:26:36;;;;;;;5.70;5.27;;;6.30;99.90;;;;;;4916014;29;20203;-74
2023/03/15 15:29:02;;;;;;;5.13;4.83;;;6.10;99.90;;;;;;4916496;29;20194;-74
2023/03/15 15:31:32;;;;;;;9.27;8.67;;;5.90;99.90;;;;;;4916751;29;20225;-74
2023/03/15 15:33:58;;;;;;;7.97;7.67;;;5.80;99.90;;;;;;4915784;29;20260;-73
2023/03/15 15:36:31;;;;;;;5.63;5.37;;;5.80;99.90;;;;;;4916317;29;20227;-73
2023/03/15 15:38:57;;;;;;;13.67;12.90;;;5.70;99.90;;;;;;4918323;29;20187;-73
2023/03/15 15:41:27;;;;;;;10.60;10.07;;;5.60;99.90;;;;;;4917158;29;20183;-73
2023/03/15 15:43:53;;;;;;;9.27;8.87;;;5.50;99.90;;;;;;4916184;29;20195;-74
2023/03/15 15:46:18;;;;;;;5.90;5.53;;;5.50;99.90;;;;;;4917194;29;20211;-73
2023/03/15 15:48:44;;;;;;;8.10;7.80;;;5.40;99.90;;;;;;4916560;29;20194;-73
2023/03/15 15:51:27;;;;;;;7.90;7.50;;;5.40;99.90;;;;;;4916640;29;20242;-74
2023/03/15 15:53:56;;;;;;;5.93;5.57;;;5.30;99.90;;;;;;4916407;29;20283;-73
2023/03/15 15:56:38;;;;;;;14.43;13.77;;;5.20;99.90;;;;;;4915293;29;20310;-72
2023/03/15 15:59:08;;;;;;;10.03;9.53;;;5.20;99.90;;;;;;4916081;29;20187;-73
2023/03/15 16:01:34;;;;;;;11.37;10.87;;;5.10;99.90;;;;;;4915486;29;20187;-73
2023/03/15 16:04:02;;;;;;;5.10;4.90;;;5.10;99.90;;;;;;4916590;29;20179;-73
2023/03/15 16:06:28;;;;;;;7.30;6.90;;;5.10;99.90;;;;;;4916569;29;20695;-73
2023/03/15 16:08:54;;;;;;;8.03;7.63;;;5.00;99.90;;;;;;4917334;29;20183;-72
2023/03/15 16:11:20;;;;;;;7.60;7.20;;;4.90;99.90;;;;;;4916708;29;20187;-73
2023/03/15 16:13:48;;;;;;;7.43;6.97;;;4.80;99.90;;;;;;4916735;29;20618;-73
2023/03/15 16:16:15;;;;;;;7.33;6.73;;;4.80;99.90;;;;;;4929289;23;20613;-69
2023/03/15 16:18:42;;;;;;;8.93;8.23;;;4.70;99.90;;;;;;4895486;29;20596;-69
2023/03/15 16:21:25;;;;;;;8.57;8.17;;;4.60;99.90;;;;;;4897419;29;20183;-69
2023/03/15 16:23:58;;;;;;;8.50;7.90;;;4.60;99.90;;;;;;4897435;29;20283;-69
2023/03/15 16:26:24;;;;;;;7.90;7.37;;;4.50;99.90;;;;;;4897319;29;20763;-69
2023/03/15 16:28:50;;;;;;;10.07;9.47;;;4.60;99.90;;;;;;4896925;29;20191;-69
2023/03/15 16:31:20;;;;;;;11.70;10.93;;;4.70;99.90;;;;;;4897061;29;20184;-69
2023/03/15 16:33:46;;;;;;;8.80;8.20;;;4.80;99.90;;;;;;4897100;29;20191;-69
2023/03/15 16:36:17;;;;;;;9.07;8.33;;;4.80;99.90;;;;;;4896895;29;20598;-69
2023/03/15 16:38:44;;;;;;;7.67;7.17;;;5.00;99.90;;;;;;4897141;29;20258;-69
2023/03/15 16:41:15;;;;;;;6.40;6.00;;;5.00;99.90;;;;;;4895841;29;20239;-69
2023/03/15 16:43:40;;;;;;;6.00;5.70;;;4.90;99.90;;;;;;4897368;29;20179;-69
2023/03/15 16:46:12;;;;;;;7.97;7.37;;;4.90;99.90;;;;;;4897327;29;20207;-69
2023/03/15 16:48:38;;;;;;;6.90;6.40;;;4.80;99.90;;;;;;4895876;29;20192;-69
2023/03/15 16:51:04;;;;;;;6.70;6.00;;;4.70;99.90;;;;;;4896106;29;20206;-70
2023/03/15 16:53:30;;;;;;;6.73;6.27;;;4.60;99.90;;;;;;4897329;29;20224;-69
2023/03/15 16:55:57;;;;;;;6.57;6.17;;;4.60;99.90;;;;;;4911750;29;20775;-74
2023/03/15 16:58:23;;;;;;;7.43;6.77;;;4.60;99.90;;;;;;4897276;29;20179;-70
2023/03/15 17:00:49;;;;;;;7.30;6.70;;;4.60;99.90;;;;;;4883497;29;20535;-68
2023/03/15 17:03:15;;;;;;;9.30;8.33;;;4.60;99.90;;;;;;4891759;29;20184;-69
2023/03/15 17:05:44;;;;;;;10.70;9.80;;;4.60;99.90;;;;;;4895570;29;20621;-68